Latest Weather Observations for Mount Ginini

IDN60801

Issued at 12:53 pm EDT Monday 26 October 2020 (issued every 10 minutes, with the page automatically refreshed every 10 minutes)

About weather observations | Map of weather stations | Latest weather observations for NSW | Other Formats
Station Details ID: 070349 Name: MOUNT GININI AWS Lat: -35.53 Lon: 148.77 Height: 1760.0 m
Data from the previous 72 hours. | See also: Recent months at Mount Ginini
Date/Time
EDT
Temp
°C
App
Temp
°C
Dew
Point
°C
Rel
Hum
%
Delta-T
°C
Wind Press
QNH
hPa
Press
MSL
hPa
Rain since
9am
mm
Dir  Spd
km/h
Gust
km/h
Spd
kts
Gust
kts
26/12:30pm -0.2 -6.4 -0.6 97 0.1 ESE 22 48 12 26 - - 0.2
26/12:00pm -0.2 -6.1 -0.6 97 0.1 ESE 20 46 11 25 - - 0.0
26/11:30am -0.2 -5.5 -0.6 97 0.1 ESE 17 48 9 26 - - 0.0
26/11:00am -0.4 -4.6 -0.8 97 0.1 ESE 11 35 6 19 - - 0.0
26/10:30am -0.7 -6.1 -1.1 97 0.1 ESE 17 43 9 23 - - 0.0
26/10:00am -0.6 -6.3 -1.0 97 0.1 ESE 19 46 10 25 - - 0.0
26/09:30am -0.8 -5.4 -1.2 97 0.1 ESE 13 39 7 21 - - 0.0
26/09:00am -0.8 -5.8 -1.2 97 0.1 ESE 15 43 8 23 - - 4.4
26/08:30am -0.9 -6.9 -1.3 97 0.1 ESE 20 56 11 30 - - 4.4
26/08:00am -0.6 -6.0 -1.0 97 0.1 ESE 17 59 9 32 - - 4.4
26/07:30am -0.7 -6.4 -1.1 97 0.1 ESE 19 52 10 28 - - 4.4
26/07:00am -0.5 -7.2 -0.9 97 0.1 ESE 24 50 13 27 - - 4.4
26/06:30am -0.4 -6.7 -0.8 97 0.1 ESE 22 63 12 34 - - 4.4
26/06:00am -0.3 -6.6 -0.7 97 0.1 ESE 22 63 12 34 - - 4.4
26/05:30am -0.1 -6.7 -0.5 97 0.2 ESE 24 59 13 32 - - 4.4
26/05:00am 0.0 -7.4 -0.4 97 0.2 ESE 28 63 15 34 - - 4.4
26/04:38am 0.2 -7.1 -0.2 97 0.2 ESE 28 61 15 33 - - 4.4
26/04:30am 0.3 -6.6 -0.1 97 0.2 ESE 26 61 14 33 - - 4.4
26/04:00am 0.5 -7.5 0.1 97 0.2 ESE 32 63 17 34 - - 4.2
26/03:30am 0.8 -6.8 0.4 97 0.2 ESE 30 63 16 34 - - 4.2
26/03:00am 0.9 -7.1 0.5 97 0.2 ESE 32 59 17 32 - - 4.2
26/02:30am 1.2 -6.7 0.8 97 0.2 ESE 32 54 17 29 - - 4.0
26/02:00am 1.2 -7.3 0.8 97 0.2 ESE 35 57 19 31 - - 3.8
26/01:30am 1.3 -6.8 0.9 97 0.2 E 33 59 18 32 - - 3.8
26/01:00am 1.3 -8.0 0.9 97 0.2 E 39 72 21 39 - - 3.8
26/12:30am 1.5 -6.6 1.1 97 0.2 E 33 56 18 30 - - 3.8
26/12:00am 1.6 -6.9 1.2 97 0.2 E 35 61 19 33 - - 3.4
 
Date/Time
EDT
Temp
°C
App
Temp
°C
Dew
Point
°C
Rel
Hum
%
Delta-T
°C
Wind Press
QNH
hPa
Press
MSL
hPa
Rain since
9am
mm
Dir  Spd
km/h
Gust
km/h
Spd
kts
Gust
kts
25/11:30pm 2.0 -6.8 1.6 97 0.2 E 37 57 20 31 - - 3.2
25/11:00pm 2.3 -6.0 1.9 97 0.2 E 35 63 19 34 - - 2.8
25/10:30pm 2.6 -5.1 2.2 97 0.2 E 32 57 17 31 - - 2.6
25/10:00pm 2.5 -5.4 2.1 97 0.2 ESE 33 57 18 31 - - 2.4
25/09:30pm 2.4 -5.5 2.0 97 0.2 ESE 33 57 18 31 - - 2.2
25/09:00pm 2.2 -5.2 1.8 97 0.2 ESE 30 52 16 28 - - 2.0
25/08:36pm 2.1 -4.9 1.7 97 0.2 ESE 28 50 15 27 - - 1.8
25/08:30pm 2.0 -4.3 1.6 97 0.2 ESE 24 57 13 31 - - 1.6
25/08:00pm 1.8 -4.5 1.4 97 0.2 ESE 24 50 13 27 - - 1.6
25/07:30pm 1.7 -3.3 1.3 97 0.2 ESE 17 52 9 28 - - 1.4
25/07:00pm 1.8 -2.8 1.4 97 0.2 ESE 15 52 8 28 - - 1.2
25/06:30pm 1.9 -3.1 1.5 97 0.2 ESE 17 44 9 24 - - 0.6
25/06:00pm 2.0 -2.2 1.6 97 0.2 ESE 13 35 7 19 - - 0.2
25/05:30pm 2.0 -2.2 1.7 98 0.1 ESE 13 35 7 19 - - 0.2
25/05:00pm 2.2 -2.0 1.9 98 0.1 ESE 13 35 7 19 - - 0.2
25/04:30pm 2.5 -1.2 2.2 98 0.1 ESE 11 35 6 19 - - 0.2
25/04:00pm 2.8 -0.9 2.5 98 0.1 ESE 11 28 6 15 - - 0.0
25/03:30pm 3.6 -0.3 3.3 98 0.1 ESE 13 33 7 18 - - 0.0
25/03:00pm 3.5 -0.1 3.2 98 0.1 ESE 11 30 6 16 - - 0.0
25/02:30pm 4.0 -0.2 3.7 98 0.1 ESE 15 28 8 15 - - 0.0
25/02:00pm 4.6 0.5 4.3 98 0.1 E 15 28 8 15 - - 0.0
25/01:30pm 4.5 -0.4 4.2 98 0.1 E 19 30 10 16 - - 0.0
25/01:00pm 4.2 0.0 3.9 98 0.1 E 15 30 8 16 - - 0.0
25/12:30pm 3.3 -0.7 3.0 98 0.1 E 13 24 7 13 - - 0.0
25/12:00pm 3.4 -0.6 3.1 98 0.1 ESE 13 24 7 13 - - 0.0
25/11:30am 2.8 -1.6 2.5 98 0.1 E 15 22 8 12 - - 0.0
25/11:00am 2.7 -1.0 2.4 98 0.1 ESE 11 24 6 13 - - 0.0
25/10:30am 1.3 -3.0 0.9 97 0.2 ESE 13 24 7 13 - - 0.0
25/10:00am 1.3 -3.0 0.9 97 0.2 ESE 13 20 7 11 - - 0.0
25/09:30am 0.6 -3.1 0.2 97 0.2 ESE 9 17 5 9 - - 0.0
25/09:00am 1.4 -2.9 1.0 97 0.2 E 13 17 7 9 - - 20.8
25/08:30am 0.8 -3.2 0.4 97 0.2 E 11 17 6 9 - - 20.8
25/08:00am 0.7 -3.7 0.3 97 0.2 E 13 19 7 10 - - 20.8
25/07:30am 0.7 -3.7 0.3 97 0.2 E 13 17 7 9 - - 20.8
25/07:00am 1.6 -2.7 1.2 97 0.2 E 13 17 7 9 - - 20.6
25/06:30am 1.9 -2.3 1.6 98 0.1 E 13 17 7 9 - - 20.6
25/06:00am 1.8 -2.0 1.5 98 0.1 E 11 15 6 8 - - 20.6
25/05:30am 2.0 -1.8 1.7 98 0.1 E 11 17 6 9 - - 20.6
25/05:00am 2.4 -1.3 2.1 98 0.1 E 11 15 6 8 - - 20.4
25/04:30am 2.9 -0.4 2.6 98 0.1 E 9 13 5 7 - - 20.2
25/04:00am 3.3 0.1 3.0 98 0.1 E 9 15 5 8 - - 20.2
25/03:30am 3.5 -0.1 3.2 98 0.1 E 11 15 6 8 - - 20.2
25/03:00am 3.6 0.4 3.3 98 0.1 E 9 13 5 7 - - 19.8
25/02:30am 4.1 1.0 3.8 98 0.1 E 9 11 5 6 - - 19.8
25/02:00am 4.2 1.2 3.9 98 0.1 E 9 13 5 7 - - 19.8
25/01:30am 4.1 1.4 3.8 98 0.1 ESE 7 15 4 8 - - 19.4
25/01:00am 4.4 2.3 4.1 98 0.1 ESE 4 9 2 5 - - 19.4
25/12:30am 5.6 3.8 5.3 98 0.1 NE 4 7 2 4 - - 19.4
25/12:00am 7.0 5.5 6.7 98 0.2 NNE 4 9 2 5 - - 19.4
 
Date/Time
EDT
Temp
°C
App
Temp
°C
Dew
Point
°C
Rel
Hum
%
Delta-T
°C
Wind Press
QNH
hPa
Press
MSL
hPa
Rain since
9am
mm
Dir  Spd
km/h
Gust
km/h
Spd
kts
Gust
kts
24/11:30pm 6.4 5.1 6.1 98 0.2 NE 2 7 1 4 - - 19.4
24/11:00pm 6.6 5.4 6.3 98 0.2 N 2 4 1 2 - - 19.4
24/10:30pm 6.5 4.5 6.2 98 0.2 SSE 6 11 3 6 - - 19.2
24/10:00pm 8.4 7.2 8.1 98 0.2 NE 4 11 2 6 - - 13.8
24/09:30pm 8.4 7.2 8.1 98 0.2 W 4 7 2 4 - - 13.8
24/09:00pm 8.4 7.2 8.1 98 0.2 W 4 7 2 4 - - 13.8
24/08:30pm 8.2 6.6 7.9 98 0.2 SSW 6 7 3 4 - - 13.8
24/08:00pm 8.9 7.3 8.6 98 0.2 WNW 7 15 4 8 - - 13.0
24/07:30pm 8.3 6.7 8.0 98 0.2 WSW 6 9 3 5 - - 11.8
24/07:00pm 9.0 8.0 8.7 98 0.2 W 4 7 2 4 - - 11.6
24/06:30pm 9.1 8.1 8.8 98 0.2 WSW 4 7 2 4 - - 10.8
24/06:00pm 9.5 8.2 9.2 98 0.2 W 6 13 3 7 - - 10.8
24/05:30pm 9.5 8.0 9.2 98 0.2 WSW 7 15 4 8 - - 10.8
24/05:00pm 9.4 7.1 9.1 98 0.2 WSW 11 24 6 13 - - 10.8
24/04:30pm 9.4 7.1 9.1 98 0.2 WSW 11 20 6 11 - - 10.8
24/04:00pm 8.6 6.1 8.3 98 0.2 WSW 11 22 6 12 - - 10.8
24/03:30pm 8.6 5.4 8.3 98 0.2 W 15 26 8 14 - - 10.8
24/03:00pm 8.8 4.7 8.5 98 0.2 W 20 39 11 21 - - 10.4
24/02:30pm 9.5 5.7 9.2 98 0.2 W 19 43 10 23 - - 10.4
24/02:00pm 9.7 5.8 9.4 98 0.2 W 20 41 11 22 - - 9.8
24/01:30pm 9.8 5.9 9.5 98 0.2 WNW 20 39 11 21 - - 9.8
24/01:00pm 9.6 4.1 9.3 98 0.2 WNW 28 52 15 28 - - 9.8
24/12:30pm 9.8 4.4 9.5 98 0.2 WNW 28 57 15 31 - - 9.6
24/12:00pm 9.7 2.9 9.4 98 0.2 NW 35 63 19 34 - - 9.4
24/11:42am 9.9 4.5 9.6 98 0.2 WNW 28 50 15 27 - - 8.8
24/11:30am 9.8 4.8 9.5 98 0.2 NW 26 43 14 23 - - 8.8
24/11:00am 9.8 4.4 9.5 98 0.2 NW 28 54 15 29 - - 7.2
24/10:30am 10.0 3.3 9.7 98 0.2 NW 35 72 19 39 - - 6.8
24/10:27am 10.0 3.3 9.7 98 0.2 NW 35 72 19 39 - - 6.8
24/10:00am 10.1 4.8 9.8 98 0.2 NW 28 46 15 25 - - 2.4
24/09:30am 10.4 5.2 10.1 98 0.2 NW 28 52 15 28 - - 0.8
24/09:00am 10.3 5.0 10.0 98 0.2 NW 28 61 15 33 - - 27.0
24/08:30am 10.2 4.9 9.9 98 0.2 NW 28 54 15 29 - - 25.2
24/08:05am 10.2 4.9 9.9 98 0.2 NW 28 56 15 30 - - 22.4
24/08:00am 10.3 5.4 10.0 98 0.2 NW 26 48 14 26 - - 21.8
24/07:30am 10.3 4.1 10.0 98 0.2 NW 33 61 18 33 - - 20.4
24/07:00am 10.2 4.0 9.9 98 0.2 NW 33 61 18 33 - - 20.2
24/06:30am 10.3 4.1 10.0 98 0.2 NW 33 61 18 33 - - 19.2
24/06:00am 10.3 5.0 10.0 98 0.2 NW 28 50 15 27 - - 19.2
24/05:30am 10.1 4.8 9.8 98 0.2 NW 28 52 15 28 - - 15.2
24/05:24am 10.0 4.7 9.7 98 0.2 NW 28 52 15 28 - - 15.2
24/05:00am 9.9 5.7 9.6 98 0.2 NW 22 44 12 24 - - 14.4
24/04:30am 9.8 4.8 9.5 98 0.2 NW 26 48 14 26 - - 14.4
24/04:00am 9.6 4.1 9.3 98 0.2 NW 28 56 15 30 - - 14.4
24/03:30am 9.3 3.8 9.0 98 0.2 NNW 28 48 15 26 - - 14.2
24/03:21am 9.2 3.6 8.9 98 0.2 NW 28 46 15 25 - - 14.2
24/03:00am 9.1 4.3 8.8 98 0.2 NNW 24 46 13 25 - - 14.2
24/02:30am 8.7 4.2 8.4 98 0.2 N 22 44 12 24 - - 14.2
24/02:00am 8.8 3.9 8.5 98 0.2 N 24 54 13 29 - - 13.0
24/01:30am 9.2 4.0 8.9 98 0.2 NNE 26 57 14 31 - - 12.8
24/01:12am 9.3 3.8 9.0 98 0.2 NNE 28 52 15 28 - - 12.8
24/01:00am 9.4 5.0 9.1 98 0.2 N 22 46 12 25 - - 12.6
24/12:30am 9.3 5.9 9.0 98 0.2 NNE 17 30 9 16 - - 11.4
24/12:00am 9.4 5.4 9.1 98 0.2 N 20 41 11 22 - - 10.4
 
Date/Time
EDT
Temp
°C
App
Temp
°C
Dew
Point
°C
Rel
Hum
%
Delta-T
°C
Wind Press
QNH
hPa
Press
MSL
hPa
Rain since
9am
mm
Dir  Spd
km/h
Gust
km/h
Spd
kts
Gust
kts
23/11:30pm 9.5 5.5 9.2 98 0.2 NNW 20 43 11 23 - - 9.6
23/11:00pm 9.8 6.8 9.3 97 0.3 N 15 35 8 19 - - 8.6
23/10:30pm 10.1 7.2 9.6 97 0.3 N 15 28 8 15 - - 8.0
23/10:00pm 9.7 6.7 9.2 97 0.3 N 15 28 8 15 - - 8.0
23/09:30pm 9.3 6.2 8.8 97 0.3 NNE 15 26 8 14 - - 8.0
23/09:00pm 9.4 6.7 8.9 97 0.3 N 13 26 7 14 - - 8.0
23/08:30pm 9.4 6.7 8.9 97 0.3 N 13 30 7 16 - - 8.0
23/08:00pm 10.2 6.9 9.4 95 0.4 N 17 41 9 22 - - 4.8
23/07:30pm 12.1 9.5 9.5 84 1.4 N 13 32 7 17 - - 0.0
23/07:00pm 12.2 9.6 9.4 83 1.6 NNE 13 32 7 17 - - 0.0
23/06:30pm 12.5 9.8 9.1 80 1.9 N 13 30 7 16 - - 0.0
23/06:00pm 12.8 10.1 8.9 77 2.2 N 13 32 7 17 - - 0.0
23/05:30pm 13.5 10.1 7.7 68 3.1 N 15 33 8 18 - - 0.0
23/05:00pm 14.1 10.3 7.6 65 3.5 N 17 33 9 18 - - 0.0
23/04:30pm 14.1 10.1 6.7 61 3.9 N 17 41 9 22 - - 0.0
23/04:00pm 15.1 10.7 7.4 60 4.2 N 20 39 11 21 - - 0.0
23/03:30pm 13.4 9.6 9.1 75 2.4 NNW 19 39 10 21 - - 0.0
23/03:00pm 16.2 13.4 10.1 67 3.5 NNW 15 30 8 16 - - 0.0
23/02:30pm 15.3 11.8 8.8 65 3.6 NNW 17 35 9 19 - - 0.0
23/02:00pm 16.0 13.6 9.9 67 3.5 N 13 26 7 14 - - 0.0
23/01:30pm 16.5 13.4 8.7 60 4.4 NNW 15 30 8 16 - - 0.0
23/01:00pm 15.4 11.6 9.1 66 3.5 N 19 32 10 17 - - 0.0

Other formats

Comma delimited format used in spreadsheet applications
http://www.bom.gov.au/fwo/IDN60801/IDN60801.95925.axf

JavaScript Object Notation format (JSON) in row-major order
http://www.bom.gov.au/fwo/IDN60801/IDN60801.95925.json

Data quality

Most of these data are generated automatically and are frequently updated. Quality checks on data are not normally performed. It is possible for incorrect values to appear. Refer to information at About Latest Weather Observations and please check the disclaimer before using these data.